OA51 weather

Fighter Field Airport
Watkins, Ohio, United States

Public forecast

Using degrees Fahrenheit for public forecast. Weather courtesy of forecast.io.

METAR (pilot weather report)

Closest report is Union County Airport, 5.7 nm (10.6 km) W. Retrieved 2019/05/21 16:35 UTC (12 minutes ago):

KMRT 211635Z AUTO 12006KT 10SM BKN120 13/02 A3015 RMK AO2 T01300022

TAF (pilot weather forecast)

Closest forecast is John Glenn Columbus International Airport, 19.9 nm (36.8 km) SE. Retrieved 2019/05/21 12:30 UTC (4 hours ago):

TAF KCMH 211129Z 2112/2212 05006KT P6SM FEW030 BKN150 FM211500 07008KT P6SM BKN100 FM220300 09009KT P6SM FEW100 FM221100 11009KT P6SM SCT070 BKN250